createdAt,value
2022-12-19T00:00:33.484Z,-6.86
2022-12-19T00:03:21.400Z,-6.88
2022-12-19T00:05:49.448Z,-6.90
2022-12-19T00:08:18.117Z,-6.94
2022-12-19T00:10:56.806Z,-6.97
2022-12-19T00:13:25.147Z,-6.98
2022-12-19T00:15:53.148Z,-7.02
2022-12-19T00:18:22.536Z,-7.03
2022-12-19T00:20:56.984Z,-7.05
2022-12-19T00:23:24.861Z,-7.06
2022-12-19T00:25:52.689Z,-7.08
2022-12-19T00:28:21.941Z,-7.11
2022-12-19T00:30:50.233Z,-7.12
2022-12-19T00:33:20.092Z,-7.15
2022-12-19T00:35:47.926Z,-7.16
2022-12-19T00:38:15.928Z,-7.17
2022-12-19T00:40:43.934Z,-7.16
2022-12-19T00:43:11.717Z,-7.18
2022-12-19T00:45:41.795Z,-7.19
2022-12-19T00:48:09.715Z,-7.20
2022-12-19T00:50:42.306Z,-7.23
2022-12-19T00:53:11.256Z,-7.24
2022-12-19T00:55:39.058Z,-7.25
2022-12-19T00:58:06.961Z,-7.29
2022-12-19T01:00:34.761Z,-7.33
2022-12-19T01:03:02.892Z,-7.37
2022-12-19T01:05:33.526Z,-7.38
2022-12-19T01:08:02.149Z,-7.41
2022-12-19T01:10:30.616Z,-7.44
2022-12-19T01:12:58.541Z,-7.47
2022-12-19T01:15:26.282Z,-7.50
2022-12-19T01:17:54.124Z,-7.53
2022-12-19T01:20:29.795Z,-7.56
2022-12-19T01:23:00.007Z,-7.62
2022-12-19T01:25:28.724Z,-7.65
2022-12-19T01:27:57.073Z,-7.67
2022-12-19T01:30:26.085Z,-7.69
2022-12-19T01:32:56.483Z,-7.72
2022-12-19T01:35:24.799Z,-7.72
2022-12-19T01:38:02.268Z,-7.75
2022-12-19T01:40:36.148Z,-7.76
2022-12-19T01:43:04.013Z,-7.78
2022-12-19T01:45:43.615Z,-7.79
2022-12-19T01:48:22.455Z,-7.80
2022-12-19T01:51:02.673Z,-7.80
2022-12-19T01:53:34.756Z,-7.81
2022-12-19T01:56:09.380Z,-7.80
2022-12-19T01:58:40.158Z,-7.80
2022-12-19T02:01:08.236Z,-7.79
2022-12-19T02:03:40.478Z,-7.80
2022-12-19T02:06:12.506Z,-7.81
2022-12-19T02:08:46.219Z,-7.82
2022-12-19T02:11:14.725Z,-7.82
2022-12-19T02:13:44.169Z,-7.81
2022-12-19T02:16:26.393Z,-7.82
2022-12-19T02:19:01.617Z,-7.82
2022-12-19T02:21:33.380Z,-7.83
2022-12-19T02:24:17.637Z,-7.85
2022-12-19T02:27:04.519Z,-7.90
2022-12-19T02:29:44.921Z,-7.96
2022-12-19T02:32:20.652Z,-8.01
2022-12-19T02:34:57.784Z,-8.04
2022-12-19T02:38:02.025Z,-8.07
2022-12-19T02:40:39.526Z,-8.07
2022-12-19T02:43:10.063Z,-8.08
2022-12-19T02:45:39.640Z,-8.07
2022-12-19T02:48:09.299Z,-8.05
2022-12-19T02:50:43.084Z,-8.02
2022-12-19T02:53:13.786Z,-8.00
2022-12-19T02:55:47.859Z,-7.97
2022-12-19T02:58:19.117Z,-7.94
2022-12-19T03:00:56.757Z,-7.87
2022-12-19T03:03:34.208Z,-7.80
2022-12-19T03:06:12.709Z,-7.72
2022-12-19T03:08:49.491Z,-7.67
2022-12-19T03:11:17.435Z,-7.63
2022-12-19T03:13:54.307Z,-7.57
2022-12-19T03:16:24.327Z,-7.51
2022-12-19T03:18:53.713Z,-7.45
2022-12-19T03:21:21.698Z,-7.41
2022-12-19T03:23:50.635Z,-7.40
2022-12-19T03:26:23.842Z,-7.35
2022-12-19T03:28:51.987Z,-7.29
2022-12-19T03:31:22.685Z,-7.25
2022-12-19T03:33:54.596Z,-7.21
2022-12-19T03:36:26.108Z,-7.14
2022-12-19T03:38:54.967Z,-7.09
2022-12-19T03:41:44.756Z,-7.02
2022-12-19T03:44:14.637Z,-6.96
2022-12-19T03:46:51.448Z,-6.94
2022-12-19T03:49:19.499Z,-6.87
2022-12-19T03:51:59.682Z,-6.85
2022-12-19T03:54:29.451Z,-6.80
2022-12-19T03:56:57.140Z,-6.78
2022-12-19T03:59:31.153Z,-6.74
2022-12-19T04:01:59.518Z,-6.73
2022-12-19T04:04:28.743Z,-6.68
2022-12-19T04:06:57.697Z,-6.67
2022-12-19T04:09:25.690Z,-6.66
2022-12-19T04:11:58.967Z,-6.60
2022-12-19T04:14:29.233Z,-6.58
2022-12-19T04:16:57.085Z,-6.64
2022-12-19T04:19:30.341Z,-6.65
2022-12-19T04:22:04.689Z,-6.70
2022-12-19T04:24:35.407Z,-6.76
2022-12-19T04:27:05.649Z,-6.78
2022-12-19T04:29:35.690Z,-6.76
2022-12-19T04:32:05.048Z,-6.72
2022-12-19T04:34:33.336Z,-6.69
2022-12-19T04:37:06.176Z,-6.67
2022-12-19T04:39:35.196Z,-6.69
2022-12-19T04:42:02.943Z,-6.69
2022-12-19T04:44:31.085Z,-6.70
2022-12-19T04:46:58.932Z,-6.73
2022-12-19T04:49:26.832Z,-6.79
2022-12-19T04:51:56.709Z,-6.81
2022-12-19T04:54:24.629Z,-6.84
2022-12-19T04:56:53.072Z,-6.86
2022-12-19T04:59:21.171Z,-6.89
2022-12-19T05:01:49.138Z,-6.93
2022-12-19T05:04:17.246Z,-6.89
2022-12-19T05:06:45.284Z,-6.90
2022-12-19T05:09:13.350Z,-6.92
2022-12-19T05:11:41.487Z,-6.95
2022-12-19T05:14:10.516Z,-7.00
2022-12-19T05:16:38.403Z,-7.04
2022-12-19T05:19:06.199Z,-7.07
2022-12-19T05:21:34.042Z,-7.10
2022-12-19T05:24:03.182Z,-7.12
2022-12-19T05:26:30.990Z,-7.16
2022-12-19T05:28:58.833Z,-7.19
2022-12-19T05:31:27.525Z,-7.20
2022-12-19T05:33:56.509Z,-7.29
2022-12-19T05:36:32.188Z,-7.31
2022-12-19T05:39:00.774Z,-7.34
2022-12-19T05:41:29.285Z,-7.37
2022-12-19T05:43:57.327Z,-7.40
2022-12-19T05:46:25.764Z,-7.42
2022-12-19T05:48:53.776Z,-7.43
2022-12-19T05:51:22.505Z,-7.44
2022-12-19T05:53:54.793Z,-7.44
2022-12-19T05:56:23.356Z,-7.43
2022-12-19T05:58:51.654Z,-7.41
2022-12-19T06:01:29.504Z,-7.41
2022-12-19T06:03:57.402Z,-7.42
2022-12-19T06:06:26.304Z,-7.40
2022-12-19T06:08:55.665Z,-7.36
2022-12-19T06:11:25.224Z,-7.35
2022-12-19T06:13:53.560Z,-7.34
2022-12-19T06:16:22.602Z,-7.35
2022-12-19T06:18:50.812Z,-7.37
2022-12-19T06:21:20.677Z,-7.36
2022-12-19T06:23:49.124Z,-7.34
2022-12-19T06:26:20.091Z,-7.30
2022-12-19T06:28:49.684Z,-7.25
2022-12-19T06:31:19.988Z,-7.23
2022-12-19T06:33:49.093Z,-7.19
2022-12-19T06:36:22.428Z,-7.18
2022-12-19T06:38:53.407Z,-7.16
2022-12-19T06:41:40.326Z,-7.13
2022-12-19T06:44:10.593Z,-7.07
2022-12-19T06:46:41.053Z,-7.03
2022-12-19T06:49:11.892Z,-6.98
2022-12-19T06:51:39.875Z,-6.95
2022-12-19T06:54:07.788Z,-6.93
2022-12-19T06:56:36.752Z,-6.88
2022-12-19T06:59:05.437Z,-6.83
2022-12-19T07:01:39.591Z,-6.78
2022-12-19T07:04:09.483Z,-6.71
2022-12-19T07:06:37.411Z,-6.63
2022-12-19T07:09:09.189Z,-6.51
2022-12-19T07:11:39.670Z,-6.40
2022-12-19T07:14:08.606Z,-6.28
2022-12-19T07:16:40.621Z,-6.16
2022-12-19T07:19:09.262Z,-6.04
2022-12-19T07:21:40.425Z,-5.90
2022-12-19T07:24:08.856Z,-5.72
2022-12-19T07:26:37.119Z,-5.58
2022-12-19T07:29:06.798Z,-5.49
2022-12-19T07:31:36.762Z,-5.33
2022-12-19T07:34:04.780Z,-5.16
2022-12-19T07:36:32.638Z,-5.07
2022-12-19T07:39:01.278Z,-4.96
2022-12-19T07:41:32.275Z,-4.88
2022-12-19T07:44:00.706Z,-4.84
2022-12-19T07:46:30.211Z,-4.64
2022-12-19T07:48:58.766Z,-4.42
2022-12-19T07:51:28.809Z,-4.27
2022-12-19T07:53:56.815Z,-4.32
2022-12-19T07:56:25.068Z,-4.26
2022-12-19T07:58:53.294Z,-4.05
2022-12-19T08:01:22.100Z,-3.93
2022-12-19T08:03:54.132Z,-3.80
2022-12-19T08:06:22.124Z,-3.72
2022-12-19T08:08:50.106Z,-3.67
2022-12-19T08:11:19.925Z,-3.66
2022-12-19T08:13:48.299Z,-3.84
2022-12-19T08:16:16.251Z,-3.62
2022-12-19T08:18:44.737Z,-3.47
2022-12-19T08:21:12.810Z,-3.42
2022-12-19T08:23:41.783Z,-3.37
2022-12-19T08:26:12.059Z,-3.47
2022-12-19T08:28:43.635Z,-3.26
2022-12-19T08:31:16.186Z,-3.11
2022-12-19T08:33:44.248Z,-3.22
2022-12-19T08:36:15.974Z,-3.32
2022-12-19T08:38:43.862Z,-3.21
2022-12-19T08:41:12.038Z,-3.18
2022-12-19T08:43:40.306Z,-3.18
2022-12-19T08:46:09.318Z,-3.15
2022-12-19T08:48:37.378Z,-3.31
2022-12-19T08:51:08.265Z,-3.22
2022-12-19T08:53:37.650Z,-3.36
2022-12-19T08:56:14.002Z,-3.32
2022-12-19T08:58:42.382Z,-3.33
2022-12-19T09:01:24.061Z,-3.23
2022-12-19T09:04:01.561Z,-3.19
2022-12-19T09:06:42.091Z,-3.10
2022-12-19T09:09:10.246Z,-3.09
2022-12-19T09:11:47.339Z,-3.09
2022-12-19T09:14:21.084Z,-3.03
2022-12-19T09:16:50.201Z,-2.92
2022-12-19T09:19:18.649Z,-2.86
2022-12-19T09:21:48.638Z,-2.81
2022-12-19T09:24:20.691Z,-2.81
2022-12-19T09:26:51.319Z,-2.78
2022-12-19T09:29:21.375Z,-2.79
2022-12-19T09:31:56.562Z,-2.78
2022-12-19T09:34:38.177Z,-2.82
2022-12-19T09:37:16.164Z,-2.72
2022-12-19T09:39:46.316Z,-2.92
2022-12-19T09:42:23.422Z,-2.80
2022-12-19T09:44:57.241Z,-2.80
2022-12-19T09:47:29.309Z,-2.71
2022-12-19T09:49:58.843Z,-2.60
2022-12-19T09:52:34.163Z,-2.40
2022-12-19T09:55:22.740Z,-2.20
2022-12-19T09:58:08.628Z,-2.17
2022-12-19T10:00:40.415Z,-2.12
2022-12-19T10:03:17.165Z,-2.17
2022-12-19T10:07:15.825Z,-2.10
2022-12-19T10:08:50.371Z,-2.06
2022-12-19T10:12:43.158Z,-1.97
2022-12-19T10:14:54.173Z,-1.96
2022-12-19T10:17:25.548Z,-1.96
2022-12-19T10:20:12.847Z,-1.95
2022-12-19T10:23:02.138Z,-1.92
2022-12-19T10:25:48.867Z,-1.91
2022-12-19T10:28:18.639Z,-1.89
2022-12-19T10:31:14.003Z,-1.87
2022-12-19T10:33:49.661Z,-1.90
2022-12-19T10:36:17.614Z,-1.89
2022-12-19T10:39:08.723Z,-1.95
2022-12-19T10:41:44.058Z,-1.84
2022-12-19T10:44:13.512Z,-1.82
2022-12-19T10:46:46.993Z,-1.81
2022-12-19T10:49:19.154Z,-1.77
2022-12-19T10:51:56.615Z,-1.75
2022-12-19T10:54:40.097Z,-1.70
2022-12-19T10:57:23.384Z,-1.72
2022-12-19T11:00:01.159Z,-1.71
2022-12-19T11:02:35.769Z,-1.75
2022-12-19T11:05:22.971Z,-1.80
2022-12-19T11:08:01.700Z,-1.83
2022-12-19T11:11:57.985Z,-1.82
2022-12-19T11:18:23.808Z,-1.80
2022-12-19T11:23:10.167Z,-1.79
2022-12-19T11:29:36.770Z,-1.91
2022-12-19T11:30:35.209Z,-1.85
2022-12-19T11:30:38.845Z,-1.86
2022-12-19T11:30:47.111Z,-1.82
2022-12-19T11:34:37.719Z,-1.89
2022-12-19T11:37:10.213Z,-1.80
2022-12-19T11:39:47.196Z,-1.70
2022-12-19T11:42:21.415Z,-1.66
2022-12-19T11:44:55.850Z,-1.66
2022-12-19T11:47:33.980Z,-1.68
2022-12-19T11:50:04.319Z,-1.91
2022-12-19T11:53:16.534Z,-1.82
2022-12-19T11:55:40.835Z,-1.74
2022-12-19T11:58:10.337Z,-1.66
2022-12-19T12:00:47.364Z,-1.56
2022-12-19T12:03:26.007Z,-1.54
2022-12-19T12:05:58.949Z,-1.54
2022-12-19T12:09:10.795Z,-1.46
2022-12-19T12:21:32.388Z,-1.47
2022-12-19T12:25:11.505Z,-1.51
2022-12-19T12:31:10.966Z,-1.60
2022-12-19T12:31:16.504Z,-1.63
2022-12-19T12:31:41.875Z,-1.61
2022-12-19T12:31:48.338Z,-1.57
2022-12-19T12:31:59.016Z,-1.58
2022-12-19T12:35:15.448Z,-1.61
2022-12-19T12:36:53.040Z,-1.57
2022-12-19T12:38:22.406Z,-1.57
2022-12-19T12:41:07.200Z,-1.58
2022-12-19T12:43:44.106Z,-1.48
2022-12-19T12:46:18.331Z,-1.48
2022-12-19T12:48:51.742Z,-1.56
2022-12-19T12:51:20.250Z,-1.57
2022-12-19T12:53:48.727Z,-1.65
2022-12-19T12:56:18.223Z,-1.70
2022-12-19T12:58:46.533Z,-1.73
2022-12-19T13:01:33.736Z,-1.84
2022-12-19T13:04:20.851Z,-1.79
2022-12-19T13:06:51.899Z,-1.83
2022-12-19T13:09:19.917Z,-1.85
2022-12-19T13:12:06.670Z,-1.82
2022-12-19T13:14:34.635Z,-1.80
2022-12-19T13:17:02.553Z,-1.81
2022-12-19T13:19:32.662Z,-1.82
2022-12-19T13:22:03.672Z,-1.95
2022-12-19T13:24:41.117Z,-1.91
2022-12-19T13:27:21.049Z,-1.95
2022-12-19T13:30:01.132Z,-1.96
2022-12-19T13:32:41.571Z,-1.90
2022-12-19T13:36:29.618Z,-1.96
2022-12-19T13:39:52.265Z,-2.01
2022-12-19T13:40:53.911Z,-2.05
2022-12-19T13:43:43.950Z,-2.08
2022-12-19T13:46:27.342Z,-2.05
2022-12-19T13:48:57.830Z,-2.05
2022-12-19T13:51:25.699Z,-2.08
2022-12-19T13:53:59.583Z,-2.10
2022-12-19T13:56:30.463Z,-2.11
2022-12-19T13:59:01.391Z,-2.08
2022-12-19T14:01:33.562Z,-2.11
2022-12-19T14:04:09.814Z,-2.12
2022-12-19T14:06:45.280Z,-2.19
2022-12-19T14:11:25.255Z,-2.27
2022-12-19T14:13:58.967Z,-2.32
2022-12-19T14:15:38.163Z,-2.39
2022-12-19T14:18:43.131Z,-2.48
2022-12-19T14:22:11.323Z,-2.55
2022-12-19T14:24:28.948Z,-2.55
2022-12-19T14:28:24.583Z,-2.60
2022-12-19T14:30:28.858Z,-2.65
2022-12-19T14:33:45.853Z,-2.69
2022-12-19T14:36:06.966Z,-2.77
2022-12-19T14:39:23.438Z,-2.85
2022-12-19T14:42:01.897Z,-2.93
2022-12-19T14:51:42.753Z,-3.04
2022-12-19T14:53:52.202Z,-3.13
2022-12-19T14:54:06.591Z,-3.18
2022-12-19T14:54:41.910Z,-3.23
2022-12-19T14:59:29.513Z,-3.37
2022-12-19T15:02:00.664Z,-3.39
2022-12-19T15:04:51.085Z,-3.48
2022-12-19T15:07:38.833Z,-3.50
2022-12-19T15:11:06.975Z,-3.53
2022-12-19T15:14:53.359Z,-3.67
2022-12-19T15:16:23.323Z,-3.77
2022-12-19T15:18:56.724Z,-3.77
2022-12-19T15:21:27.392Z,-3.84
2022-12-19T15:23:58.776Z,-3.86
2022-12-19T15:26:32.727Z,-3.87
2022-12-19T15:29:02.021Z,-3.87
2022-12-19T15:31:35.087Z,-3.91
2022-12-19T15:37:02.723Z,-3.97
2022-12-19T15:39:31.018Z,-4.01
2022-12-19T15:42:00.524Z,-4.06
2022-12-19T15:44:33.234Z,-4.11
2022-12-19T15:47:02.595Z,-4.17
2022-12-19T15:49:32.955Z,-4.21
2022-12-19T15:52:01.389Z,-4.19
2022-12-19T15:57:23.645Z,-4.19
2022-12-19T15:59:52.382Z,-4.24
2022-12-19T16:02:22.899Z,-4.27
2022-12-19T16:04:54.506Z,-4.31
2022-12-19T16:07:27.933Z,-4.36
2022-12-19T16:09:55.882Z,-4.41
2022-12-19T16:12:37.714Z,-4.46
2022-12-19T16:15:07.200Z,-4.53
2022-12-19T16:17:35.223Z,-4.59
2022-12-19T16:20:03.127Z,-4.64
2022-12-19T16:22:31.640Z,-4.67
2022-12-19T16:24:59.510Z,-4.68
2022-12-19T16:27:31.818Z,-4.68
2022-12-19T16:30:18.694Z,-4.67
2022-12-19T16:32:47.577Z,-4.73
2022-12-19T16:36:03.029Z,-4.73
2022-12-19T16:38:24.134Z,-4.73
2022-12-19T16:40:52.453Z,-4.75
2022-12-19T16:43:30.236Z,-4.77
2022-12-19T16:46:01.448Z,-4.85
2022-12-19T16:48:30.364Z,-4.85
2022-12-19T16:50:59.268Z,-4.86
2022-12-19T16:53:29.870Z,-4.90
2022-12-19T16:55:59.457Z,-4.89
2022-12-19T16:58:28.547Z,-4.90
2022-12-19T17:00:56.977Z,-4.89
2022-12-19T17:03:26.131Z,-4.88
2022-12-19T17:05:55.089Z,-4.88
2022-12-19T17:08:23.152Z,-4.91
2022-12-19T17:10:52.463Z,-4.94
2022-12-19T17:13:21.207Z,-4.97
2022-12-19T17:15:54.504Z,-5.03
2022-12-19T17:18:31.685Z,-5.11
2022-12-19T17:20:59.970Z,-5.14
2022-12-19T17:23:32.589Z,-5.19
2022-12-19T17:26:01.102Z,-5.24
2022-12-19T17:28:30.098Z,-5.28
2022-12-19T17:31:00.729Z,-5.32
2022-12-19T17:33:33.515Z,-5.36
2022-12-19T17:36:02.215Z,-5.40
2022-12-19T17:38:30.663Z,-5.45
2022-12-19T17:40:58.741Z,-5.49
2022-12-19T17:43:26.646Z,-5.53
2022-12-19T17:45:54.670Z,-5.58
2022-12-19T17:48:31.409Z,-5.60
2022-12-19T17:51:00.189Z,-5.64
2022-12-19T17:53:28.405Z,-5.68
2022-12-19T17:55:57.243Z,-5.71
2022-12-19T17:58:26.455Z,-5.74
2022-12-19T18:00:54.506Z,-5.73
2022-12-19T18:03:24.611Z,-5.73
2022-12-19T18:05:54.003Z,-5.68
2022-12-19T18:08:27.288Z,-5.66
2022-12-19T18:10:58.031Z,-5.64
2022-12-19T18:13:26.988Z,-5.62
2022-12-19T18:16:00.476Z,-5.59
2022-12-19T18:18:30.362Z,-5.58
2022-12-19T18:21:02.026Z,-5.57
2022-12-19T18:23:30.905Z,-5.58
2022-12-19T18:26:01.955Z,-5.61
2022-12-19T18:28:30.549Z,-5.63
2022-12-19T18:31:01.306Z,-5.65
2022-12-19T18:33:32.541Z,-5.68
2022-12-19T18:36:00.755Z,-5.71
2022-12-19T18:38:28.709Z,-5.74
2022-12-19T18:40:57.468Z,-5.77
2022-12-19T18:43:25.390Z,-5.81
2022-12-19T18:45:53.542Z,-5.84
2022-12-19T18:48:21.619Z,-5.87
2022-12-19T18:50:49.589Z,-5.92
2022-12-19T18:53:19.343Z,-5.95
2022-12-19T18:55:48.518Z,-5.99
2022-12-19T18:58:18.982Z,-6.01
2022-12-19T19:00:47.319Z,-6.05
2022-12-19T19:03:22.148Z,-6.10
2022-12-19T19:05:50.142Z,-6.12
2022-12-19T19:08:19.872Z,-6.14
2022-12-19T19:10:54.513Z,-6.16
2022-12-19T19:13:25.868Z,-6.16
2022-12-19T19:15:56.481Z,-6.16
2022-12-19T19:18:26.078Z,-6.12
2022-12-19T19:21:00.730Z,-6.09
2022-12-19T19:23:33.366Z,-6.06
2022-12-19T19:26:01.869Z,-6.03
2022-12-19T19:28:29.877Z,-6.00
2022-12-19T19:30:59.073Z,-5.96
2022-12-19T19:33:30.208Z,-5.94
2022-12-19T19:36:03.555Z,-5.91
2022-12-19T19:38:36.889Z,-5.87
2022-12-19T19:41:04.833Z,-5.86
2022-12-19T19:43:35.625Z,-5.87
2022-12-19T19:46:05.723Z,-5.90
2022-12-19T19:48:34.306Z,-5.93
2022-12-19T19:51:03.453Z,-5.95
2022-12-19T19:53:31.644Z,-5.96
2022-12-19T19:56:04.810Z,-5.99
2022-12-19T19:58:32.851Z,-6.03
2022-12-19T20:01:01.533Z,-6.05
2022-12-19T20:03:30.766Z,-6.07
2022-12-19T20:06:02.344Z,-6.09
2022-12-19T20:08:38.584Z,-6.11
2022-12-19T20:11:09.315Z,-6.13
2022-12-19T20:13:38.512Z,-6.18
2022-12-19T20:16:08.747Z,-6.21
2022-12-19T20:18:37.430Z,-6.25
2022-12-19T20:21:12.626Z,-6.30
2022-12-19T20:23:42.730Z,-6.32
2022-12-19T20:26:16.107Z,-6.36
2022-12-19T20:28:49.054Z,-6.37
2022-12-19T20:31:18.626Z,-6.34
2022-12-19T20:33:48.455Z,-6.32
2022-12-19T20:36:17.062Z,-6.29
2022-12-19T20:38:45.545Z,-6.26
2022-12-19T20:41:15.914Z,-6.24
2022-12-19T20:43:46.311Z,-6.20
2022-12-19T20:46:17.856Z,-6.15
2022-12-19T20:48:46.638Z,-6.13
2022-12-19T20:51:15.019Z,-6.12
2022-12-19T20:53:43.360Z,-6.11
2022-12-19T20:56:13.496Z,-6.10
2022-12-19T20:58:41.821Z,-6.11
2022-12-19T21:01:12.663Z,-6.08
2022-12-19T21:03:41.414Z,-6.05
2022-12-19T21:06:12.800Z,-6.05
2022-12-19T21:08:41.148Z,-6.08
2022-12-19T21:11:10.714Z,-6.10
2022-12-19T21:13:39.093Z,-6.12
2022-12-19T21:16:08.995Z,-6.15
2022-12-19T21:18:38.007Z,-6.20
2022-12-19T21:21:07.650Z,-6.22
2022-12-19T21:23:35.673Z,-6.27
2022-12-19T21:26:04.647Z,-6.32
2022-12-19T21:28:33.257Z,-6.37
2022-12-19T21:31:02.956Z,-6.42
2022-12-19T21:33:31.154Z,-6.46
2022-12-19T21:36:05.070Z,-6.48
2022-12-19T21:38:32.976Z,-6.53
2022-12-19T21:41:04.891Z,-6.56
2022-12-19T21:43:36.665Z,-6.59
2022-12-19T21:46:09.043Z,-6.62
2022-12-19T21:48:38.424Z,-6.63
2022-12-19T21:51:07.991Z,-6.63
2022-12-19T21:53:36.752Z,-6.63
2022-12-19T21:56:05.524Z,-6.60
2022-12-19T21:58:33.491Z,-6.58
2022-12-19T22:01:08.844Z,-6.55
2022-12-19T22:03:37.982Z,-6.53
2022-12-19T22:06:08.782Z,-6.51
2022-12-19T22:08:37.088Z,-6.48
2022-12-19T22:11:09.918Z,-6.46
2022-12-19T22:13:38.075Z,-6.45
2022-12-19T22:16:06.258Z,-6.45
2022-12-19T22:18:35.357Z,-6.46
2022-12-19T22:21:03.423Z,-6.46
2022-12-19T22:23:33.619Z,-6.51
2022-12-19T22:26:02.391Z,-6.49
2022-12-19T22:28:31.329Z,-6.52
2022-12-19T22:30:59.219Z,-6.54
2022-12-19T22:33:30.028Z,-6.56
2022-12-19T22:35:58.534Z,-6.60
2022-12-19T22:38:26.493Z,-6.60
2022-12-19T22:40:54.532Z,-6.66
2022-12-19T22:43:24.648Z,-6.69
2022-12-19T22:45:52.837Z,-6.69
2022-12-19T22:48:20.726Z,-6.70
2022-12-19T22:50:48.549Z,-6.72
2022-12-19T22:53:16.547Z,-6.73
2022-12-19T22:55:44.600Z,-6.76
2022-12-19T22:58:13.015Z,-6.77
2022-12-19T23:00:42.017Z,-6.80
2022-12-19T23:03:10.116Z,-6.85
2022-12-19T23:05:38.433Z,-6.86
2022-12-19T23:08:06.417Z,-6.89
2022-12-19T23:10:36.321Z,-6.88
2022-12-19T23:13:04.445Z,-6.89
2022-12-19T23:15:34.595Z,-6.92
2022-12-19T23:18:02.485Z,-6.90
2022-12-19T23:20:30.284Z,-6.93
2022-12-19T23:22:58.188Z,-6.94
2022-12-19T23:25:26.068Z,-7.02
2022-12-19T23:27:54.951Z,-7.04
2022-12-19T23:30:23.526Z,-7.08
2022-12-19T23:32:51.396Z,-7.12
2022-12-19T23:35:19.479Z,-7.14
2022-12-19T23:37:47.330Z,-7.15
2022-12-19T23:40:15.240Z,-7.24
2022-12-19T23:42:43.084Z,-7.30
2022-12-19T23:45:11.714Z,-7.37
2022-12-19T23:47:40.240Z,-7.38
2022-12-19T23:50:08.398Z,-7.45
2022-12-19T23:52:36.211Z,-7.45
2022-12-19T23:55:05.341Z,-7.45
2022-12-19T23:57:33.250Z,-7.42
